sensor_id;sensor_type;location;lat;lon;timestamp;temperature;humidity
6439;DHT22;3252;52.540;13.290;2022-09-13T00:00:53;15.20;99.90
6439;DHT22;3252;52.540;13.290;2022-09-13T00:02:55;15.20;99.90
6439;DHT22;3252;52.540;13.290;2022-09-13T00:04:58;15.20;99.90
6439;DHT22;3252;52.540;13.290;2022-09-13T00:07:00;15.20;99.90
6439;DHT22;3252;52.540;13.290;2022-09-13T00:09:02;15.20;99.90
6439;DHT22;3252;52.540;13.290;2022-09-13T00:11:04;15.20;99.90
6439;DHT22;3252;52.540;13.290;2022-09-13T00:13:07;15.20;99.90
6439;DHT22;3252;52.540;13.290;2022-09-13T00:15:10;15.30;99.90
6439;DHT22;3252;52.540;13.290;2022-09-13T00:17:12;15.20;99.90
6439;DHT22;3252;52.540;13.290;2022-09-13T00:19:14;15.20;99.90
6439;DHT22;3252;52.540;13.290;2022-09-13T00:21:19;15.20;99.90
6439;DHT22;3252;52.540;13.290;2022-09-13T00:23:22;15.20;99.90
6439;DHT22;3252;52.540;13.290;2022-09-13T00:25:23;15.20;99.90
6439;DHT22;3252;52.540;13.290;2022-09-13T00:27:25;15.20;99.90
6439;DHT22;3252;52.540;13.290;2022-09-13T00:29:27;15.20;99.90
6439;DHT22;3252;52.540;13.290;2022-09-13T00:31:29;15.20;99.90
6439;DHT22;3252;52.540;13.290;2022-09-13T00:33:31;15.20;99.90
6439;DHT22;3252;52.540;13.290;2022-09-13T00:35:34;15.20;99.90
6439;DHT22;3252;52.540;13.290;2022-09-13T00:37:37;15.20;99.90
6439;DHT22;3252;52.540;13.290;2022-09-13T00:39:39;15.20;99.90
6439;DHT22;3252;52.540;13.290;2022-09-13T00:41:41;15.20;99.90
6439;DHT22;3252;52.540;13.290;2022-09-13T00:43:46;15.20;99.90
6439;DHT22;3252;52.540;13.290;2022-09-13T00:45:49;15.20;99.90
6439;DHT22;3252;52.540;13.290;2022-09-13T00:47:55;15.20;99.90
6439;DHT22;3252;52.540;13.290;2022-09-13T00:50:04;15.20;99.90
6439;DHT22;3252;52.540;13.290;2022-09-13T00:52:11;15.20;99.90
6439;DHT22;3252;52.540;13.290;2022-09-13T00:54:17;15.20;99.90
6439;DHT22;3252;52.540;13.290;2022-09-13T00:56:28;15.20;99.90
6439;DHT22;3252;52.540;13.290;2022-09-13T00:58:34;15.20;99.90
6439;DHT22;3252;52.540;13.290;2022-09-13T01:00:38;15.10;99.90
6439;DHT22;3252;52.540;13.290;2022-09-13T01:02:44;15.10;99.90
6439;DHT22;3252;52.540;13.290;2022-09-13T01:04:47;15.10;99.90
6439;DHT22;3252;52.540;13.290;2022-09-13T01:06:51;15.10;99.90
6439;DHT22;3252;52.540;13.290;2022-09-13T01:08:54;15.10;99.90
6439;DHT22;3252;52.540;13.290;2022-09-13T01:11:01;15.20;99.90
6439;DHT22;3252;52.540;13.290;2022-09-13T01:13:07;15.10;99.90
6439;DHT22;3252;52.540;13.290;2022-09-13T01:15:14;15.10;99.90
6439;DHT22;3252;52.540;13.290;2022-09-13T01:17:16;15.10;99.90
6439;DHT22;3252;52.540;13.290;2022-09-13T01:19:19;15.10;99.90
6439;DHT22;3252;52.540;13.290;2022-09-13T01:21:49;15.10;99.90
6439;DHT22;3252;52.540;13.290;2022-09-13T01:27:00;15.00;99.90
6439;DHT22;3252;52.540;13.290;2022-09-13T01:29:21;15.00;99.90
6439;DHT22;3252;52.540;13.290;2022-09-13T01:31:34;15.00;99.90
6439;DHT22;3252;52.540;13.290;2022-09-13T01:33:46;15.00;99.90
6439;DHT22;3252;52.540;13.290;2022-09-13T01:36:09;14.90;99.90
6439;DHT22;3252;52.540;13.290;2022-09-13T01:38:24;14.90;99.90
6439;DHT22;3252;52.540;13.290;2022-09-13T01:40:40;14.90;99.90
6439;DHT22;3252;52.540;13.290;2022-09-13T01:42:59;14.90;99.90
6439;DHT22;3252;52.540;13.290;2022-09-13T01:45:11;14.90;99.90
6439;DHT22;3252;52.540;13.290;2022-09-13T01:47:26;14.90;99.90
6439;DHT22;3252;52.540;13.290;2022-09-13T01:49:38;14.90;99.90
6439;DHT22;3252;52.540;13.290;2022-09-13T01:51:48;14.80;99.90
6439;DHT22;3252;52.540;13.290;2022-09-13T01:53:57;14.80;99.90
6439;DHT22;3252;52.540;13.290;2022-09-13T01:56:06;14.80;99.90
6439;DHT22;3252;52.540;13.290;2022-09-13T01:58:19;14.70;99.90
6439;DHT22;3252;52.540;13.290;2022-09-13T02:00:23;14.70;99.90
6439;DHT22;3252;52.540;13.290;2022-09-13T02:02:29;14.70;99.90
6439;DHT22;3252;52.540;13.290;2022-09-13T02:04:35;14.60;99.90
6439;DHT22;3252;52.540;13.290;2022-09-13T02:06:42;14.60;99.90
6439;DHT22;3252;52.540;13.290;2022-09-13T02:08:49;14.60;99.90
6439;DHT22;3252;52.540;13.290;2022-09-13T02:10:55;14.60;99.90
6439;DHT22;3252;52.540;13.290;2022-09-13T02:13:00;14.60;99.90
6439;DHT22;3252;52.540;13.290;2022-09-13T02:15:06;14.60;99.90
6439;DHT22;3252;52.540;13.290;2022-09-13T02:17:12;14.60;99.90
6439;DHT22;3252;52.540;13.290;2022-09-13T02:19:20;14.50;99.90
6439;DHT22;3252;52.540;13.290;2022-09-13T02:21:28;14.60;99.90
6439;DHT22;3252;52.540;13.290;2022-09-13T02:23:35;14.50;99.90
6439;DHT22;3252;52.540;13.290;2022-09-13T02:25:38;14.50;99.90
6439;DHT22;3252;52.540;13.290;2022-09-13T02:27:47;14.50;99.90
6439;DHT22;3252;52.540;13.290;2022-09-13T02:29:52;14.50;99.90
6439;DHT22;3252;52.540;13.290;2022-09-13T02:31:59;14.40;99.90
6439;DHT22;3252;52.540;13.290;2022-09-13T02:34:05;14.40;99.90
6439;DHT22;3252;52.540;13.290;2022-09-13T02:36:13;14.30;99.90
6439;DHT22;3252;52.540;13.290;2022-09-13T02:38:21;14.30;99.90
6439;DHT22;3252;52.540;13.290;2022-09-13T02:40:26;14.20;99.90
6439;DHT22;3252;52.540;13.290;2022-09-13T02:42:34;14.20;99.90
6439;DHT22;3252;52.540;13.290;2022-09-13T02:44:39;14.20;99.90
6439;DHT22;3252;52.540;13.290;2022-09-13T02:46:58;14.10;99.90
6439;DHT22;3252;52.540;13.290;2022-09-13T02:49:09;14.10;99.90
6439;DHT22;3252;52.540;13.290;2022-09-13T02:51:17;14.20;99.90
6439;DHT22;3252;52.540;13.290;2022-09-13T02:53:25;14.20;99.90
6439;DHT22;3252;52.540;13.290;2022-09-13T02:55:37;14.20;99.90
6439;DHT22;3252;52.540;13.290;2022-09-13T02:57:50;14.20;99.90
6439;DHT22;3252;52.540;13.290;2022-09-13T02:59:52;14.10;99.90
6439;DHT22;3252;52.540;13.290;2022-09-13T03:01:58;14.10;99.90
6439;DHT22;3252;52.540;13.290;2022-09-13T03:04:02;14.10;99.90
6439;DHT22;3252;52.540;13.290;2022-09-13T03:06:05;14.10;99.90
6439;DHT22;3252;52.540;13.290;2022-09-13T03:08:10;14.10;99.90
6439;DHT22;3252;52.540;13.290;2022-09-13T03:10:14;14.10;99.90
6439;DHT22;3252;52.540;13.290;2022-09-13T03:12:32;14.00;99.90
6439;DHT22;3252;52.540;13.290;2022-09-13T03:14:44;14.00;99.90
6439;DHT22;3252;52.540;13.290;2022-09-13T03:17:02;14.10;99.90
6439;DHT22;3252;52.540;13.290;2022-09-13T03:19:20;14.10;99.90
6439;DHT22;3252;52.540;13.290;2022-09-13T03:21:37;14.00;99.90
6439;DHT22;3252;52.540;13.290;2022-09-13T03:23:46;14.00;99.90
6439;DHT22;3252;52.540;13.290;2022-09-13T03:26:07;14.00;99.90
6439;DHT22;3252;52.540;13.290;2022-09-13T03:28:18;14.00;99.90
6439;DHT22;3252;52.540;13.290;2022-09-13T03:30:21;14.00;99.90
6439;DHT22;3252;52.540;13.290;2022-09-13T03:32:28;14.00;99.90
6439;DHT22;3252;52.540;13.290;2022-09-13T03:34:39;14.00;99.90
6439;DHT22;3252;52.540;13.290;2022-09-13T03:36:46;14.00;99.90
6439;DHT22;3252;52.540;13.290;2022-09-13T03:38:55;14.00;99.90
6439;DHT22;3252;52.540;13.290;2022-09-13T03:41:09;14.00;99.90
6439;DHT22;3252;52.540;13.290;2022-09-13T03:43:15;14.00;99.90
6439;DHT22;3252;52.540;13.290;2022-09-13T03:45:20;14.00;99.90
6439;DHT22;3252;52.540;13.290;2022-09-13T03:47:26;14.00;99.90
6439;DHT22;3252;52.540;13.290;2022-09-13T03:49:32;14.10;99.90
6439;DHT22;3252;52.540;13.290;2022-09-13T03:51:39;14.10;99.90
6439;DHT22;3252;52.540;13.290;2022-09-13T03:53:44;14.10;99.90
6439;DHT22;3252;52.540;13.290;2022-09-13T03:55:48;14.10;99.90
6439;DHT22;3252;52.540;13.290;2022-09-13T03:57:50;14.10;99.90
6439;DHT22;3252;52.540;13.290;2022-09-13T03:59:54;14.10;99.90
6439;DHT22;3252;52.540;13.290;2022-09-13T04:01:57;14.10;99.90
6439;DHT22;3252;52.540;13.290;2022-09-13T04:03:59;14.10;99.90
6439;DHT22;3252;52.540;13.290;2022-09-13T04:06:01;14.10;99.90
6439;DHT22;3252;52.540;13.290;2022-09-13T04:08:05;14.20;99.90
6439;DHT22;3252;52.540;13.290;2022-09-13T04:10:08;14.20;99.90
6439;DHT22;3252;52.540;13.290;2022-09-13T04:12:12;14.20;99.90
6439;DHT22;3252;52.540;13.290;2022-09-13T04:14:14;14.30;99.90
6439;DHT22;3252;52.540;13.290;2022-09-13T04:16:16;14.30;99.90
6439;DHT22;3252;52.540;13.290;2022-09-13T04:18:18;14.30;99.90
6439;DHT22;3252;52.540;13.290;2022-09-13T04:20:20;14.30;99.90
6439;DHT22;3252;52.540;13.290;2022-09-13T04:22:22;14.40;99.90
6439;DHT22;3252;52.540;13.290;2022-09-13T04:24:26;14.40;99.90
6439;DHT22;3252;52.540;13.290;2022-09-13T04:26:28;14.40;99.90
6439;DHT22;3252;52.540;13.290;2022-09-13T04:28:31;14.50;99.90
6439;DHT22;3252;52.540;13.290;2022-09-13T04:30:33;14.50;99.90
6439;DHT22;3252;52.540;13.290;2022-09-13T04:32:35;14.50;99.90
6439;DHT22;3252;52.540;13.290;2022-09-13T04:34:37;14.50;99.90
6439;DHT22;3252;52.540;13.290;2022-09-13T04:36:41;14.50;99.90
6439;DHT22;3252;52.540;13.290;2022-09-13T04:38:45;14.60;99.90
6439;DHT22;3252;52.540;13.290;2022-09-13T04:40:51;14.60;99.90
6439;DHT22;3252;52.540;13.290;2022-09-13T04:42:53;14.60;99.90
6439;DHT22;3252;52.540;13.290;2022-09-13T04:44:57;14.60;99.90
6439;DHT22;3252;52.540;13.290;2022-09-13T04:46:59;14.60;99.90
6439;DHT22;3252;52.540;13.290;2022-09-13T04:49:01;14.60;99.90
6439;DHT22;3252;52.540;13.290;2022-09-13T04:51:04;14.60;99.90
6439;DHT22;3252;52.540;13.290;2022-09-13T04:53:06;14.60;99.90
6439;DHT22;3252;52.540;13.290;2022-09-13T04:55:08;14.60;99.90
6439;DHT22;3252;52.540;13.290;2022-09-13T04:57:10;14.60;99.90
6439;DHT22;3252;52.540;13.290;2022-09-13T04:59:13;14.60;99.90
6439;DHT22;3252;52.540;13.290;2022-09-13T05:01:16;14.60;99.90
6439;DHT22;3252;52.540;13.290;2022-09-13T05:03:18;14.60;99.90
6439;DHT22;3252;52.540;13.290;2022-09-13T05:05:20;14.60;99.90
6439;DHT22;3252;52.540;13.290;2022-09-13T05:07:22;14.60;99.90
6439;DHT22;3252;52.540;13.290;2022-09-13T05:09:24;14.60;99.90
6439;DHT22;3252;52.540;13.290;2022-09-13T05:11:27;14.60;99.90
6439;DHT22;3252;52.540;13.290;2022-09-13T05:13:29;14.60;99.90
6439;DHT22;3252;52.540;13.290;2022-09-13T05:15:32;14.60;99.90
6439;DHT22;3252;52.540;13.290;2022-09-13T05:17:35;14.60;99.90
6439;DHT22;3252;52.540;13.290;2022-09-13T05:19:37;14.60;99.90
6439;DHT22;3252;52.540;13.290;2022-09-13T05:21:39;14.70;99.90
6439;DHT22;3252;52.540;13.290;2022-09-13T05:23:41;14.70;99.90
6439;DHT22;3252;52.540;13.290;2022-09-13T05:25:43;14.70;99.90
6439;DHT22;3252;52.540;13.290;2022-09-13T05:27:45;14.60;99.90
6439;DHT22;3252;52.540;13.290;2022-09-13T05:29:47;14.60;99.90
6439;DHT22;3252;52.540;13.290;2022-09-13T05:31:49;14.70;99.90
6439;DHT22;3252;52.540;13.290;2022-09-13T05:33:55;14.70;99.90
6439;DHT22;3252;52.540;13.290;2022-09-13T05:35:57;14.60;99.90
6439;DHT22;3252;52.540;13.290;2022-09-13T05:37:59;14.60;99.90
6439;DHT22;3252;52.540;13.290;2022-09-13T05:40:01;14.60;99.90
6439;DHT22;3252;52.540;13.290;2022-09-13T05:42:06;14.60;99.90
6439;DHT22;3252;52.540;13.290;2022-09-13T05:44:08;14.60;99.90
6439;DHT22;3252;52.540;13.290;2022-09-13T05:46:11;14.60;99.90
6439;DHT22;3252;52.540;13.290;2022-09-13T05:48:13;14.60;99.90
6439;DHT22;3252;52.540;13.290;2022-09-13T05:50:17;14.60;99.90
6439;DHT22;3252;52.540;13.290;2022-09-13T05:52:20;14.60;99.90
6439;DHT22;3252;52.540;13.290;2022-09-13T05:54:22;14.60;99.90
6439;DHT22;3252;52.540;13.290;2022-09-13T05:56:25;14.60;99.90
6439;DHT22;3252;52.540;13.290;2022-09-13T05:58:28;14.60;99.90
6439;DHT22;3252;52.540;13.290;2022-09-13T06:00:30;14.60;99.90
6439;DHT22;3252;52.540;13.290;2022-09-13T06:02:32;14.50;99.90
6439;DHT22;3252;52.540;13.290;2022-09-13T06:04:34;14.50;99.90
6439;DHT22;3252;52.540;13.290;2022-09-13T06:07:01;14.50;99.90
6439;DHT22;3252;52.540;13.290;2022-09-13T06:09:03;14.50;99.90
6439;DHT22;3252;52.540;13.290;2022-09-13T06:11:09;14.50;99.90
6439;DHT22;3252;52.540;13.290;2022-09-13T06:13:11;14.40;99.90
6439;DHT22;3252;52.540;13.290;2022-09-13T06:15:13;14.40;99.90
6439;DHT22;3252;52.540;13.290;2022-09-13T06:17:15;14.40;99.90
6439;DHT22;3252;52.540;13.290;2022-09-13T06:19:17;14.40;99.90
6439;DHT22;3252;52.540;13.290;2022-09-13T06:21:20;14.40;99.90
6439;DHT22;3252;52.540;13.290;2022-09-13T06:23:24;14.40;99.90
6439;DHT22;3252;52.540;13.290;2022-09-13T06:25:26;14.40;99.90
6439;DHT22;3252;52.540;13.290;2022-09-13T06:27:28;14.40;99.90
6439;DHT22;3252;52.540;13.290;2022-09-13T06:29:31;14.40;99.90
6439;DHT22;3252;52.540;13.290;2022-09-13T06:31:33;14.40;99.90
6439;DHT22;3252;52.540;13.290;2022-09-13T06:33:36;14.40;99.90
6439;DHT22;3252;52.540;13.290;2022-09-13T06:35:38;14.30;99.90
6439;DHT22;3252;52.540;13.290;2022-09-13T06:37:40;14.30;99.90
6439;DHT22;3252;52.540;13.290;2022-09-13T06:39:44;14.30;99.90
6439;DHT22;3252;52.540;13.290;2022-09-13T06:41:46;14.30;99.90
6439;DHT22;3252;52.540;13.290;2022-09-13T06:43:52;14.40;99.90
6439;DHT22;3252;52.540;13.290;2022-09-13T06:45:59;14.40;99.90
6439;DHT22;3252;52.540;13.290;2022-09-13T06:48:01;14.40;99.90
6439;DHT22;3252;52.540;13.290;2022-09-13T06:50:04;14.40;99.90
6439;DHT22;3252;52.540;13.290;2022-09-13T06:52:07;14.40;99.90
6439;DHT22;3252;52.540;13.290;2022-09-13T06:54:09;14.50;99.90
6439;DHT22;3252;52.540;13.290;2022-09-13T06:56:14;14.50;99.90
6439;DHT22;3252;52.540;13.290;2022-09-13T06:58:16;14.50;99.90
6439;DHT22;3252;52.540;13.290;2022-09-13T07:00:18;14.50;99.90
6439;DHT22;3252;52.540;13.290;2022-09-13T07:02:20;14.50;99.90
6439;DHT22;3252;52.540;13.290;2022-09-13T07:04:24;14.60;99.90
6439;DHT22;3252;52.540;13.290;2022-09-13T07:06:32;14.60;99.90
6439;DHT22;3252;52.540;13.290;2022-09-13T07:08:35;14.60;99.90
6439;DHT22;3252;52.540;13.290;2022-09-13T07:10:37;14.70;99.90
6439;DHT22;3252;52.540;13.290;2022-09-13T07:12:40;14.70;99.90
6439;DHT22;3252;52.540;13.290;2022-09-13T07:14:42;14.70;99.90
6439;DHT22;3252;52.540;13.290;2022-09-13T07:16:44;14.70;99.90
6439;DHT22;3252;52.540;13.290;2022-09-13T07:18:50;14.70;99.90
6439;DHT22;3252;52.540;13.290;2022-09-13T07:20:57;14.80;99.90
6439;DHT22;3252;52.540;13.290;2022-09-13T07:23:01;14.80;99.90
6439;DHT22;3252;52.540;13.290;2022-09-13T07:25:03;14.90;99.90
6439;DHT22;3252;52.540;13.290;2022-09-13T07:27:05;14.90;99.90
6439;DHT22;3252;52.540;13.290;2022-09-13T07:29:11;14.90;99.90
6439;DHT22;3252;52.540;13.290;2022-09-13T07:31:16;15.00;99.90
6439;DHT22;3252;52.540;13.290;2022-09-13T07:33:20;15.00;99.90
6439;DHT22;3252;52.540;13.290;2022-09-13T07:35:21;15.00;99.90
6439;DHT22;3252;52.540;13.290;2022-09-13T07:37:23;15.10;99.90
6439;DHT22;3252;52.540;13.290;2022-09-13T07:39:25;15.10;99.90
6439;DHT22;3252;52.540;13.290;2022-09-13T07:41:29;15.10;99.90
6439;DHT22;3252;52.540;13.290;2022-09-13T07:43:31;15.10;99.90
6439;DHT22;3252;52.540;13.290;2022-09-13T07:45:35;15.20;99.90
6439;DHT22;3252;52.540;13.290;2022-09-13T07:47:37;15.30;99.90
6439;DHT22;3252;52.540;13.290;2022-09-13T07:49:39;15.30;99.90
6439;DHT22;3252;52.540;13.290;2022-09-13T07:51:42;15.30;99.90
6439;DHT22;3252;52.540;13.290;2022-09-13T07:53:45;15.40;99.90
6439;DHT22;3252;52.540;13.290;2022-09-13T07:55:47;15.40;99.90
6439;DHT22;3252;52.540;13.290;2022-09-13T07:57:49;15.40;99.90
6439;DHT22;3252;52.540;13.290;2022-09-13T07:59:52;15.50;99.90
6439;DHT22;3252;52.540;13.290;2022-09-13T08:01:56;15.50;99.90
6439;DHT22;3252;52.540;13.290;2022-09-13T08:03:59;15.60;99.90
6439;DHT22;3252;52.540;13.290;2022-09-13T08:06:03;15.60;99.90
6439;DHT22;3252;52.540;13.290;2022-09-13T08:08:05;15.60;99.90
6439;DHT22;3252;52.540;13.290;2022-09-13T08:10:08;15.70;99.90
6439;DHT22;3252;52.540;13.290;2022-09-13T08:12:10;15.70;99.90
6439;DHT22;3252;52.540;13.290;2022-09-13T08:14:14;15.80;99.90
6439;DHT22;3252;52.540;13.290;2022-09-13T08:16:19;15.80;99.90
6439;DHT22;3252;52.540;13.290;2022-09-13T08:18:22;15.80;99.90
6439;DHT22;3252;52.540;13.290;2022-09-13T08:20:24;15.80;99.90
6439;DHT22;3252;52.540;13.290;2022-09-13T08:22:26;15.90;99.90
6439;DHT22;3252;52.540;13.290;2022-09-13T08:24:29;15.90;99.90
6439;DHT22;3252;52.540;13.290;2022-09-13T08:26:32;16.00;99.90
6439;DHT22;3252;52.540;13.290;2022-09-13T08:28:35;16.00;99.90
6439;DHT22;3252;52.540;13.290;2022-09-13T08:30:38;16.00;99.90
6439;DHT22;3252;52.540;13.290;2022-09-13T08:32:42;16.10;99.90
6439;DHT22;3252;52.540;13.290;2022-09-13T08:34:45;16.20;99.90
6439;DHT22;3252;52.540;13.290;2022-09-13T08:36:47;16.20;99.90
6439;DHT22;3252;52.540;13.290;2022-09-13T08:38:51;16.30;99.90
6439;DHT22;3252;52.540;13.290;2022-09-13T08:40:55;16.30;99.90
6439;DHT22;3252;52.540;13.290;2022-09-13T08:43:03;16.40;99.90
6439;DHT22;3252;52.540;13.290;2022-09-13T08:45:07;16.50;99.90
6439;DHT22;3252;52.540;13.290;2022-09-13T08:49:45;16.70;99.90
6439;DHT22;3252;52.540;13.290;2022-09-13T08:51:50;16.70;99.90
6439;DHT22;3252;52.540;13.290;2022-09-13T08:53:54;16.80;99.90
6439;DHT22;3252;52.540;13.290;2022-09-13T08:56:02;16.90;99.90
6439;DHT22;3252;52.540;13.290;2022-09-13T08:58:24;17.00;99.90
6439;DHT22;3252;52.540;13.290;2022-09-13T09:00:32;17.00;99.90
6439;DHT22;3252;52.540;13.290;2022-09-13T09:02:46;17.10;99.90
6439;DHT22;3252;52.540;13.290;2022-09-13T09:04:55;17.10;99.90
6439;DHT22;3252;52.540;13.290;2022-09-13T09:07:02;17.20;99.90
6439;DHT22;3252;52.540;13.290;2022-09-13T09:09:09;17.20;99.90
6439;DHT22;3252;52.540;13.290;2022-09-13T09:11:20;17.30;99.90
6439;DHT22;3252;52.540;13.290;2022-09-13T09:13:28;17.40;99.90
6439;DHT22;3252;52.540;13.290;2022-09-13T09:15:34;17.40;99.90
6439;DHT22;3252;52.540;13.290;2022-09-13T09:17:44;17.50;99.90
6439;DHT22;3252;52.540;13.290;2022-09-13T09:19:48;17.60;99.90
6439;DHT22;3252;52.540;13.290;2022-09-13T09:21:54;17.80;99.90
6439;DHT22;3252;52.540;13.290;2022-09-13T09:23:56;18.00;99.90
6439;DHT22;3252;52.540;13.290;2022-09-13T09:26:13;18.00;99.90
6439;DHT22;3252;52.540;13.290;2022-09-13T09:28:18;18.10;99.90
6439;DHT22;3252;52.540;13.290;2022-09-13T09:30:20;18.20;99.90
6439;DHT22;3252;52.540;13.290;2022-09-13T09:32:36;18.30;99.90
6439;DHT22;3252;52.540;13.290;2022-09-13T09:34:51;18.40;99.90
6439;DHT22;3252;52.540;13.290;2022-09-13T09:37:00;18.50;99.90
6439;DHT22;3252;52.540;13.290;2022-09-13T09:39:04;18.60;99.90
6439;DHT22;3252;52.540;13.290;2022-09-13T09:41:14;18.60;99.90
6439;DHT22;3252;52.540;13.290;2022-09-13T09:43:22;18.60;99.90
6439;DHT22;3252;52.540;13.290;2022-09-13T09:45:27;18.70;99.90
6439;DHT22;3252;52.540;13.290;2022-09-13T09:47:35;18.70;99.90
6439;DHT22;3252;52.540;13.290;2022-09-13T09:49:44;18.80;99.90
6439;DHT22;3252;52.540;13.290;2022-09-13T09:52:08;18.80;99.90
6439;DHT22;3252;52.540;13.290;2022-09-13T09:54:11;18.90;99.90
6439;DHT22;3252;52.540;13.290;2022-09-13T09:56:21;19.00;99.90
6439;DHT22;3252;52.540;13.290;2022-09-13T09:58:36;19.10;99.90
6439;DHT22;3252;52.540;13.290;2022-09-13T10:00:50;19.50;99.90
6439;DHT22;3252;52.540;13.290;2022-09-13T10:02:55;19.70;99.90
6439;DHT22;3252;52.540;13.290;2022-09-13T10:05:00;19.80;99.90
6439;DHT22;3252;52.540;13.290;2022-09-13T10:07:10;19.80;99.90
6439;DHT22;3252;52.540;13.290;2022-09-13T10:09:20;19.80;99.90
6439;DHT22;3252;52.540;13.290;2022-09-13T10:11:23;19.90;99.90
6439;DHT22;3252;52.540;13.290;2022-09-13T10:13:27;20.00;99.90
6439;DHT22;3252;52.540;13.290;2022-09-13T10:15:31;20.00;99.90
6439;DHT22;3252;52.540;13.290;2022-09-13T10:17:34;19.90;99.90
6439;DHT22;3252;52.540;13.290;2022-09-13T10:19:37;19.90;99.90
6439;DHT22;3252;52.540;13.290;2022-09-13T10:21:39;19.90;99.90
6439;DHT22;3252;52.540;13.290;2022-09-13T10:23:43;19.80;99.90
6439;DHT22;3252;52.540;13.290;2022-09-13T10:26:03;19.80;99.90
6439;DHT22;3252;52.540;13.290;2022-09-13T10:28:11;19.80;99.90
6439;DHT22;3252;52.540;13.290;2022-09-13T10:30:30;19.80;99.90
6439;DHT22;3252;52.540;13.290;2022-09-13T10:32:33;19.70;99.90
6439;DHT22;3252;52.540;13.290;2022-09-13T10:34:36;19.70;99.90
6439;DHT22;3252;52.540;13.290;2022-09-13T10:36:46;19.70;99.90
6439;DHT22;3252;52.540;13.290;2022-09-13T10:38:57;19.60;99.90
6439;DHT22;3252;52.540;13.290;2022-09-13T10:41:02;19.60;99.90
6439;DHT22;3252;52.540;13.290;2022-09-13T10:43:12;19.50;99.90
6439;DHT22;3252;52.540;13.290;2022-09-13T10:45:22;19.50;99.90
6439;DHT22;3252;52.540;13.290;2022-09-13T10:47:28;19.50;99.90
6439;DHT22;3252;52.540;13.290;2022-09-13T10:49:38;19.50;99.90
6439;DHT22;3252;52.540;13.290;2022-09-13T10:51:41;19.50;99.90
6439;DHT22;3252;52.540;13.290;2022-09-13T10:53:43;19.50;99.90
6439;DHT22;3252;52.540;13.290;2022-09-13T10:55:52;19.50;99.90
6439;DHT22;3252;52.540;13.290;2022-09-13T10:58:10;19.40;99.90
6439;DHT22;3252;52.540;13.290;2022-09-13T11:00:16;19.40;99.90
6439;DHT22;3252;52.540;13.290;2022-09-13T11:02:57;19.40;99.90
6439;DHT22;3252;52.540;13.290;2022-09-13T11:05:18;19.30;99.90
6439;DHT22;3252;52.540;13.290;2022-09-13T11:07:40;19.30;99.90
6439;DHT22;3252;52.540;13.290;2022-09-13T11:09:48;19.30;99.90
6439;DHT22;3252;52.540;13.290;2022-09-13T11:12:01;19.30;99.90
6439;DHT22;3252;52.540;13.290;2022-09-13T11:14:17;19.20;99.90
6439;DHT22;3252;52.540;13.290;2022-09-13T11:16:33;19.20;99.90
6439;DHT22;3252;52.540;13.290;2022-09-13T11:18:56;19.20;99.90
6439;DHT22;3252;52.540;13.290;2022-09-13T11:21:12;19.20;99.90
6439;DHT22;3252;52.540;13.290;2022-09-13T11:23:34;19.20;99.90
6439;DHT22;3252;52.540;13.290;2022-09-13T11:25:50;19.20;99.90
6439;DHT22;3252;52.540;13.290;2022-09-13T11:27:59;19.20;99.90
6439;DHT22;3252;52.540;13.290;2022-09-13T11:30:10;19.10;99.90
6439;DHT22;3252;52.540;13.290;2022-09-13T11:32:22;19.10;99.90
6439;DHT22;3252;52.540;13.290;2022-09-13T11:34:35;19.10;99.90
6439;DHT22;3252;52.540;13.290;2022-09-13T11:36:57;19.10;99.90
6439;DHT22;3252;52.540;13.290;2022-09-13T11:39:08;19.10;99.90
6439;DHT22;3252;52.540;13.290;2022-09-13T11:41:23;19.10;99.90
6439;DHT22;3252;52.540;13.290;2022-09-13T11:43:40;19.10;99.90
6439;DHT22;3252;52.540;13.290;2022-09-13T11:45:49;19.10;99.90
6439;DHT22;3252;52.540;13.290;2022-09-13T11:48:16;19.10;99.90
6439;DHT22;3252;52.540;13.290;2022-09-13T11:50:27;19.10;99.90
6439;DHT22;3252;52.540;13.290;2022-09-13T11:52:41;19.10;99.90
6439;DHT22;3252;52.540;13.290;2022-09-13T11:54:56;19.10;99.90
6439;DHT22;3252;52.540;13.290;2022-09-13T11:57:03;19.10;99.90
6439;DHT22;3252;52.540;13.290;2022-09-13T11:59:17;19.00;99.90
6439;DHT22;3252;52.540;13.290;2022-09-13T12:01:22;19.00;99.90
6439;DHT22;3252;52.540;13.290;2022-09-13T12:03:32;19.00;99.90
6439;DHT22;3252;52.540;13.290;2022-09-13T12:05:40;19.00;99.90
6439;DHT22;3252;52.540;13.290;2022-09-13T12:07:45;18.90;99.90
6439;DHT22;3252;52.540;13.290;2022-09-13T12:09:54;18.90;99.90
6439;DHT22;3252;52.540;13.290;2022-09-13T12:12:03;18.80;99.90
6439;DHT22;3252;52.540;13.290;2022-09-13T12:14:12;18.70;99.90
6439;DHT22;3252;52.540;13.290;2022-09-13T12:16:21;18.70;99.90
6439;DHT22;3252;52.540;13.290;2022-09-13T12:18:27;18.70;99.90
6439;DHT22;3252;52.540;13.290;2022-09-13T12:20:34;18.70;99.90
6439;DHT22;3252;52.540;13.290;2022-09-13T12:22:36;18.70;99.90
6439;DHT22;3252;52.540;13.290;2022-09-13T12:24:42;18.70;99.90
6439;DHT22;3252;52.540;13.290;2022-09-13T12:26:49;18.70;99.90
6439;DHT22;3252;52.540;13.290;2022-09-13T12:28:56;18.70;99.90
6439;DHT22;3252;52.540;13.290;2022-09-13T12:31:03;18.60;99.90
6439;DHT22;3252;52.540;13.290;2022-09-13T12:33:05;18.60;99.90
6439;DHT22;3252;52.540;13.290;2022-09-13T12:35:12;18.60;99.90
6439;DHT22;3252;52.540;13.290;2022-09-13T12:37:33;18.60;99.90
6439;DHT22;3252;52.540;13.290;2022-09-13T12:39:56;18.60;99.90
6439;DHT22;3252;52.540;13.290;2022-09-13T12:45:05;18.60;99.90
6439;DHT22;3252;52.540;13.290;2022-09-13T12:47:29;18.60;99.90
6439;DHT22;3252;52.540;13.290;2022-09-13T12:49:55;18.60;99.90
6439;DHT22;3252;52.540;13.290;2022-09-13T12:52:19;18.70;99.90
6439;DHT22;3252;52.540;13.290;2022-09-13T12:54:38;18.70;99.90
6439;DHT22;3252;52.540;13.290;2022-09-13T12:56:52;18.70;99.90
6439;DHT22;3252;52.540;13.290;2022-09-13T12:59:15;18.70;99.90
6439;DHT22;3252;52.540;13.290;2022-09-13T13:01:21;18.70;99.90
6439;DHT22;3252;52.540;13.290;2022-09-13T13:03:28;18.70;99.90
6439;DHT22;3252;52.540;13.290;2022-09-13T13:05:34;18.70;99.90
6439;DHT22;3252;52.540;13.290;2022-09-13T13:07:37;18.70;99.90
6439;DHT22;3252;52.540;13.290;2022-09-13T13:09:42;18.70;99.90
6439;DHT22;3252;52.540;13.290;2022-09-13T13:11:45;18.80;99.90
6439;DHT22;3252;52.540;13.290;2022-09-13T13:13:55;18.70;99.90
6439;DHT22;3252;52.540;13.290;2022-09-13T13:16:19;18.70;99.90
6439;DHT22;3252;52.540;13.290;2022-09-13T13:18:25;18.70;99.90
6439;DHT22;3252;52.540;13.290;2022-09-13T13:21:21;18.70;99.90
6439;DHT22;3252;52.540;13.290;2022-09-13T13:23:25;18.70;99.90
6439;DHT22;3252;52.540;13.290;2022-09-13T13:25:33;18.70;99.90
6439;DHT22;3252;52.540;13.290;2022-09-13T13:27:41;18.70;99.90
6439;DHT22;3252;52.540;13.290;2022-09-13T13:32:26;18.80;99.90
6439;DHT22;3252;52.540;13.290;2022-09-13T13:34:43;18.90;99.90
6439;DHT22;3252;52.540;13.290;2022-09-13T13:36:47;19.00;99.90
6439;DHT22;3252;52.540;13.290;2022-09-13T13:38:52;19.00;99.90
6439;DHT22;3252;52.540;13.290;2022-09-13T13:41:05;19.30;99.90
6439;DHT22;3252;52.540;13.290;2022-09-13T13:43:25;19.50;99.90
6439;DHT22;3252;52.540;13.290;2022-09-13T13:45:29;19.40;99.90